sensor_id;sensor_type;location;lat;lon;timestamp;pressure;altitude;pressure_sealevel;temperature;humidity
37778;BME280;23615;51.506;7.678;2023-08-30T00:01:10;99297.50;;;15.83;97.74
37778;BME280;23615;51.506;7.678;2023-08-30T00:03:38;99295.34;;;15.75;98.02
37778;BME280;23615;51.506;7.678;2023-08-30T00:06:05;99295.91;;;15.67;98.37
37778;BME280;23615;51.506;7.678;2023-08-30T00:08:31;99293.22;;;15.67;98.65
37778;BME280;23615;51.506;7.678;2023-08-30T00:10:57;99298.56;;;15.77;98.84
37778;BME280;23615;51.506;7.678;2023-08-30T00:13:24;99303.97;;;15.82;98.33
37778;BME280;23615;51.506;7.678;2023-08-30T00:15:50;99298.03;;;15.80;98.21
37778;BME280;23615;51.506;7.678;2023-08-30T00:18:15;99292.38;;;15.82;98.00
37778;BME280;23615;51.506;7.678;2023-08-30T00:20:42;99296.69;;;15.78;98.15
37778;BME280;23615;51.506;7.678;2023-08-30T00:23:08;99298.03;;;15.75;97.91
37778;BME280;23615;51.506;7.678;2023-08-30T00:25:33;99292.66;;;15.75;97.82
37778;BME280;23615;51.506;7.678;2023-08-30T00:27:58;99300.22;;;15.73;97.87
37778;BME280;23615;51.506;7.678;2023-08-30T00:30:23;99297.81;;;15.71;98.17
37778;BME280;23615;51.506;7.678;2023-08-30T00:32:49;99300.00;;;15.64;98.48
37778;BME280;23615;51.506;7.678;2023-08-30T00:35:14;99302.38;;;15.71;98.22
37778;BME280;23615;51.506;7.678;2023-08-30T00:37:39;99303.72;;;15.68;98.12
37778;BME280;23615;51.506;7.678;2023-08-30T00:40:05;99303.47;;;15.60;98.39
37778;BME280;23615;51.506;7.678;2023-08-30T00:42:31;99303.50;;;15.55;99.16
37778;BME280;23615;51.506;7.678;2023-08-30T00:44:56;99301.88;;;15.49;98.95
37778;BME280;23615;51.506;7.678;2023-08-30T00:47:22;99302.44;;;15.46;99.13
37778;BME280;23615;51.506;7.678;2023-08-30T00:49:47;99298.94;;;15.40;99.85
37778;BME280;23615;51.506;7.678;2023-08-30T00:52:13;99301.66;;;15.35;99.77
37778;BME280;23615;51.506;7.678;2023-08-30T00:54:38;99290.91;;;15.35;99.76
37778;BME280;23615;51.506;7.678;2023-08-30T00:57:04;99292.78;;;15.34;99.88
37778;BME280;23615;51.506;7.678;2023-08-30T00:59:32;99282.56;;;15.31;99.88
37778;BME280;23615;51.506;7.678;2023-08-30T01:01:57;99280.94;;;15.30;99.87
37778;BME280;23615;51.506;7.678;2023-08-30T01:04:24;99280.94;;;15.30;99.54
37778;BME280;23615;51.506;7.678;2023-08-30T01:06:50;99271.00;;;15.31;99.28
37778;BME280;23615;51.506;7.678;2023-08-30T01:09:16;99270.19;;;15.30;99.35
37778;BME280;23615;51.506;7.678;2023-08-30T01:15:01;99267.81;;;15.29;98.92
37778;BME280;23615;51.506;7.678;2023-08-30T01:17:24;99254.91;;;15.26;99.06
37778;BME280;23615;51.506;7.678;2023-08-30T01:20:01;99258.94;;;15.23;98.81
37778;BME280;23615;51.506;7.678;2023-08-30T01:22:40;99268.06;;;15.22;98.67
37778;BME280;23615;51.506;7.678;2023-08-30T01:25:16;99261.88;;;15.22;98.81
37778;BME280;23615;51.506;7.678;2023-08-30T01:27:43;99264.88;;;15.20;98.49
37778;BME280;23615;51.506;7.678;2023-08-30T01:30:11;99265.13;;;15.19;98.50
37778;BME280;23615;51.506;7.678;2023-08-30T01:32:38;99260.28;;;15.16;98.29
37778;BME280;23615;51.506;7.678;2023-08-30T01:35:05;99256.25;;;15.13;98.38
37778;BME280;23615;51.506;7.678;2023-08-30T01:37:32;99257.63;;;15.11;98.12
37778;BME280;23615;51.506;7.678;2023-08-30T01:39:58;99260.59;;;15.09;97.67
37778;BME280;23615;51.506;7.678;2023-08-30T01:42:25;99256.56;;;15.07;97.51
37778;BME280;23615;51.506;7.678;2023-08-30T01:44:52;99261.94;;;15.02;97.72
37778;BME280;23615;51.506;7.678;2023-08-30T01:47:20;99258.44;;;14.96;97.17
37778;BME280;23615;51.506;7.678;2023-08-30T01:49:46;99255.50;;;14.92;97.18
37778;BME280;23615;51.506;7.678;2023-08-30T01:52:12;99264.09;;;14.89;97.12
37778;BME280;23615;51.506;7.678;2023-08-30T01:54:39;99256.31;;;14.88;97.33
37778;BME280;23615;51.506;7.678;2023-08-30T01:57:05;99257.13;;;14.83;96.92
37778;BME280;23615;51.506;7.678;2023-08-30T01:59:31;99255.78;;;14.81;97.09
37778;BME280;23615;51.506;7.678;2023-08-30T02:01:56;99245.56;;;14.78;96.94
37778;BME280;23615;51.506;7.678;2023-08-30T02:04:22;99254.19;;;14.75;96.43
37778;BME280;23615;51.506;7.678;2023-08-30T02:06:57;99245.31;;;14.69;96.93
37778;BME280;23615;51.506;7.678;2023-08-30T02:09:36;99254.69;;;14.67;96.92
37778;BME280;23615;51.506;7.678;2023-08-30T02:12:07;99252.56;;;14.64;96.98
37778;BME280;23615;51.506;7.678;2023-08-30T02:14:36;99261.97;;;14.61;96.83
37778;BME280;23615;51.506;7.678;2023-08-30T02:17:03;99260.09;;;14.56;97.07
37778;BME280;23615;51.506;7.678;2023-08-30T02:19:30;99260.63;;;14.53;96.82
37778;BME280;23615;51.506;7.678;2023-08-30T02:21:55;99261.16;;;14.50;96.77
37778;BME280;23615;51.506;7.678;2023-08-30T02:24:20;99256.03;;;14.49;96.85
37778;BME280;23615;51.506;7.678;2023-08-30T02:26:46;99255.78;;;14.45;96.72
37778;BME280;23615;51.506;7.678;2023-08-30T02:29:11;99245.56;;;14.42;96.92
37778;BME280;23615;51.506;7.678;2023-08-30T02:31:38;99249.31;;;14.36;96.63
37778;BME280;23615;51.506;7.678;2023-08-30T02:34:03;99248.22;;;14.32;97.16
37778;BME280;23615;51.506;7.678;2023-08-30T02:36:29;99243.41;;;14.29;97.07
37778;BME280;23615;51.506;7.678;2023-08-30T02:38:54;99243.66;;;14.28;96.86
37778;BME280;23615;51.506;7.678;2023-08-30T02:41:19;99240.41;;;14.20;97.26
37778;BME280;23615;51.506;7.678;2023-08-30T02:43:44;99240.69;;;14.19;97.34
37778;BME280;23615;51.506;7.678;2023-08-30T02:46:09;99240.69;;;14.14;97.51
37778;BME280;23615;51.506;7.678;2023-08-30T02:48:35;99237.44;;;14.12;97.52
37778;BME280;23615;51.506;7.678;2023-08-30T02:51:00;99238.81;;;14.14;97.92
37778;BME280;23615;51.506;7.678;2023-08-30T02:53:25;99241.75;;;14.08;98.26
37778;BME280;23615;51.506;7.678;2023-08-30T02:55:51;99243.38;;;14.09;98.48
37778;BME280;23615;51.506;7.678;2023-08-30T02:58:16;99242.56;;;14.08;98.39
37778;BME280;23615;51.506;7.678;2023-08-30T03:00:41;99238.81;;;14.09;98.67
37778;BME280;23615;51.506;7.678;2023-08-30T03:03:07;99231.81;;;14.08;98.14
37778;BME280;23615;51.506;7.678;2023-08-30T03:05:32;99238.25;;;14.07;98.44
37778;BME280;23615;51.506;7.678;2023-08-30T03:07:57;99230.47;;;14.06;98.27
37778;BME280;23615;51.506;7.678;2023-08-30T03:10:23;99227.78;;;14.06;98.57
37778;BME280;23615;51.506;7.678;2023-08-30T03:12:48;99228.59;;;14.06;98.74
37778;BME280;23615;51.506;7.678;2023-08-30T03:15:14;99232.59;;;14.04;98.65
37778;BME280;23615;51.506;7.678;2023-08-30T03:17:39;99233.69;;;14.03;98.67
37778;BME280;23615;51.506;7.678;2023-08-30T03:20:05;99233.41;;;13.99;98.92
37778;BME280;23615;51.506;7.678;2023-08-30T03:22:31;99233.94;;;13.96;98.68
37778;BME280;23615;51.506;7.678;2023-08-30T03:24:57;99236.63;;;13.96;99.05
37778;BME280;23615;51.506;7.678;2023-08-30T03:27:22;99228.84;;;13.95;99.36
37778;BME280;23615;51.506;7.678;2023-08-30T03:29:48;99230.44;;;13.96;99.20
37778;BME280;23615;51.506;7.678;2023-08-30T03:32:16;99228.56;;;13.91;100.00
37778;BME280;23615;51.506;7.678;2023-08-30T03:34:44;99223.47;;;13.90;100.00
37778;BME280;23615;51.506;7.678;2023-08-30T03:37:09;99220.50;;;13.86;100.00
37778;BME280;23615;51.506;7.678;2023-08-30T03:39:38;99223.72;;;13.88;100.00
37778;BME280;23615;51.506;7.678;2023-08-30T03:42:03;99215.94;;;13.86;100.00
37778;BME280;23615;51.506;7.678;2023-08-30T03:44:29;99225.06;;;13.85;100.00
37778;BME280;23615;51.506;7.678;2023-08-30T03:46:54;99222.38;;;13.85;100.00
37778;BME280;23615;51.506;7.678;2023-08-30T03:49:21;99223.44;;;13.84;100.00
37778;BME280;23615;51.506;7.678;2023-08-30T03:51:49;99231.25;;;13.91;100.00
37778;BME280;23615;51.506;7.678;2023-08-30T03:54:14;99228.31;;;13.93;100.00
37778;BME280;23615;51.506;7.678;2023-08-30T03:56:44;99223.22;;;13.96;100.00
37778;BME280;23615;51.506;7.678;2023-08-30T03:59:11;99217.56;;;13.88;100.00
37778;BME280;23615;51.506;7.678;2023-08-30T04:01:36;99214.91;;;13.98;100.00
37778;BME280;23615;51.506;7.678;2023-08-30T04:04:02;99211.69;;;13.96;100.00
37778;BME280;23615;51.506;7.678;2023-08-30T04:06:27;99211.69;;;13.96;100.00
37778;BME280;23615;51.506;7.678;2023-08-30T04:08:52;99221.31;;;13.81;100.00
37778;BME280;23615;51.506;7.678;2023-08-30T04:11:18;99211.34;;;13.72;100.00
37778;BME280;23615;51.506;7.678;2023-08-30T04:13:43;99212.69;;;13.69;100.00
37778;BME280;23615;51.506;7.678;2023-08-30T04:16:08;99212.13;;;13.67;100.00
37778;BME280;23615;51.506;7.678;2023-08-30T04:18:34;99218.84;;;13.70;100.00
37778;BME280;23615;51.506;7.678;2023-08-30T04:20:59;99210.56;;;13.71;100.00
37778;BME280;23615;51.506;7.678;2023-08-30T04:23:27;99207.88;;;13.71;100.00
37778;BME280;23615;51.506;7.678;2023-08-30T04:25:52;99209.72;;;13.66;100.00
37778;BME280;23615;51.506;7.678;2023-08-30T04:28:17;99204.34;;;13.61;100.00
37778;BME280;23615;51.506;7.678;2023-08-30T04:30:42;99204.06;;;13.57;100.00
37778;BME280;23615;51.506;7.678;2023-08-30T04:33:08;99204.59;;;13.54;100.00
37778;BME280;23615;51.506;7.678;2023-08-30T04:35:33;99199.75;;;13.51;100.00
37778;BME280;23615;51.506;7.678;2023-08-30T04:37:59;99205.38;;;13.49;100.00
37778;BME280;23615;51.506;7.678;2023-08-30T04:40:25;99199.75;;;13.46;100.00
37778;BME280;23615;51.506;7.678;2023-08-30T04:42:50;99203.25;;;13.46;100.00
37778;BME280;23615;51.506;7.678;2023-08-30T04:45:15;99205.38;;;13.44;100.00
37778;BME280;23615;51.506;7.678;2023-08-30T04:47:41;99206.22;;;13.55;100.00
37778;BME280;23615;51.506;7.678;2023-08-30T04:50:08;99206.19;;;13.50;100.00
37778;BME280;23615;51.506;7.678;2023-08-30T04:52:34;99206.72;;;13.52;100.00
37778;BME280;23615;51.506;7.678;2023-08-30T04:54:59;99201.91;;;13.54;100.00
37778;BME280;23615;51.506;7.678;2023-08-30T04:57:25;99207.50;;;13.42;100.00
37778;BME280;23615;51.506;7.678;2023-08-30T04:59:50;99203.75;;;13.43;100.00
37778;BME280;23615;51.506;7.678;2023-08-30T05:02:15;99203.25;;;13.46;100.00
37778;BME280;23615;51.506;7.678;2023-08-30T05:04:41;99193.81;;;13.34;100.00
37778;BME280;23615;51.506;7.678;2023-08-30T05:07:06;99200.72;;;13.25;100.00
37778;BME280;23615;51.506;7.678;2023-08-30T05:09:32;99186.53;;;13.24;100.00
37778;BME280;23615;51.506;7.678;2023-08-30T05:11:58;99189.19;;;13.24;100.00
37778;BME280;23615;51.506;7.678;2023-08-30T05:14:23;99183.59;;;13.26;100.00
37778;BME280;23615;51.506;7.678;2023-08-30T05:16:49;99189.50;;;13.28;100.00
37778;BME280;23615;51.506;7.678;2023-08-30T05:19:15;99185.75;;;13.29;100.00
37778;BME280;23615;51.506;7.678;2023-08-30T05:21:42;99178.78;;;13.28;100.00
37778;BME280;23615;51.506;7.678;2023-08-30T05:24:07;99174.75;;;13.25;100.00
37778;BME280;23615;51.506;7.678;2023-08-30T05:26:33;99173.13;;;13.24;100.00
37778;BME280;23615;51.506;7.678;2023-08-30T05:28:58;99170.97;;;13.21;100.00
37778;BME280;23615;51.506;7.678;2023-08-30T05:31:23;99164.00;;;13.20;100.00
37778;BME280;23615;51.506;7.678;2023-08-30T05:33:49;99162.13;;;13.21;100.00
37778;BME280;23615;51.506;7.678;2023-08-30T05:36:14;99159.19;;;13.22;100.00
37778;BME280;23615;51.506;7.678;2023-08-30T05:38:39;99149.81;;;13.20;100.00
37778;BME280;23615;51.506;7.678;2023-08-30T05:41:06;99151.13;;;13.17;100.00
37778;BME280;23615;51.506;7.678;2023-08-30T05:43:31;99154.63;;;13.18;100.00
37778;BME280;23615;51.506;7.678;2023-08-30T05:45:56;99157.31;;;13.18;100.00
37778;BME280;23615;51.506;7.678;2023-08-30T05:48:26;99154.63;;;13.18;100.00
37778;BME280;23615;51.506;7.678;2023-08-30T05:50:52;99154.13;;;13.26;100.00
37778;BME280;23615;51.506;7.678;2023-08-30T05:53:17;99158.66;;;13.25;100.00
37778;BME280;23615;51.506;7.678;2023-08-30T05:55:42;99149.28;;;13.23;100.00
37778;BME280;23615;51.506;7.678;2023-08-30T05:58:08;99147.69;;;13.27;100.00
37778;BME280;23615;51.506;7.678;2023-08-30T06:00:33;99148.75;;;13.26;100.00
37778;BME280;23615;51.506;7.678;2023-08-30T06:02:58;99138.03;;;13.26;100.00
37778;BME280;23615;51.506;7.678;2023-08-30T06:05:24;99134.56;;;13.30;100.00
37778;BME280;23615;51.506;7.678;2023-08-30T06:07:49;99136.19;;;13.31;100.00
37778;BME280;23615;51.506;7.678;2023-08-30T06:10:14;99128.69;;;13.33;100.00
37778;BME280;23615;51.506;7.678;2023-08-30T06:12:40;99128.97;;;13.37;100.00
37778;BME280;23615;51.506;7.678;2023-08-30T06:15:05;99137.56;;;13.44;100.00
37778;BME280;23615;51.506;7.678;2023-08-30T06:17:31;99134.38;;;13.47;100.00
37778;BME280;23615;51.506;7.678;2023-08-30T06:19:57;99127.94;;;13.53;100.00
37778;BME280;23615;51.506;7.678;2023-08-30T06:22:22;99122.84;;;13.57;100.00
37778;BME280;23615;51.506;7.678;2023-08-30T06:24:47;99122.59;;;13.58;100.00
37778;BME280;23615;51.506;7.678;2023-08-30T06:27:12;99118.56;;;13.61;100.00
37778;BME280;23615;51.506;7.678;2023-08-30T06:29:38;99120.47;;;13.65;100.00
37778;BME280;23615;51.506;7.678;2023-08-30T06:32:04;99120.47;;;13.70;100.00
37778;BME280;23615;51.506;7.678;2023-08-30T06:34:29;99114.31;;;13.75;100.00
37778;BME280;23615;51.506;7.678;2023-08-30T06:36:55;99108.69;;;13.76;100.00
37778;BME280;23615;51.506;7.678;2023-08-30T06:39:20;99113.25;;;13.81;100.00
37778;BME280;23615;51.506;7.678;2023-08-30T06:41:45;99110.81;;;13.84;100.00
37778;BME280;23615;51.506;7.678;2023-08-30T06:44:11;99104.69;;;13.89;100.00
37778;BME280;23615;51.506;7.678;2023-08-30T06:46:36;99108.16;;;13.95;100.00
37778;BME280;23615;51.506;7.678;2023-08-30T06:49:03;99098.22;;;13.95;100.00
37778;BME280;23615;51.506;7.678;2023-08-30T06:51:28;99100.94;;;14.00;100.00
37778;BME280;23615;51.506;7.678;2023-08-30T06:53:53;99103.34;;;14.07;100.00
37778;BME280;23615;51.506;7.678;2023-08-30T06:56:20;99100.94;;;14.10;100.00
37778;BME280;23615;51.506;7.678;2023-08-30T06:58:45;99100.13;;;14.15;100.00
37778;BME280;23615;51.506;7.678;2023-08-30T07:01:11;99091.53;;;14.18;100.00
37778;BME280;23615;51.506;7.678;2023-08-30T07:03:36;99092.59;;;14.22;100.00
37778;BME280;23615;51.506;7.678;2023-08-30T07:06:01;99093.66;;;14.26;100.00
37778;BME280;23615;51.506;7.678;2023-08-30T07:08:27;99098.75;;;14.33;100.00
37778;BME280;23615;51.506;7.678;2023-08-30T07:10:52;99095.56;;;14.46;100.00
37778;BME280;23615;51.506;7.678;2023-08-30T07:13:17;99097.69;;;14.54;100.00
37778;BME280;23615;51.506;7.678;2023-08-30T07:15:43;99095.78;;;14.59;100.00
37778;BME280;23615;51.506;7.678;2023-08-30T07:18:09;99095.78;;;14.59;100.00
37778;BME280;23615;51.506;7.678;2023-08-30T07:20:35;99090.41;;;14.65;100.00
37778;BME280;23615;51.506;7.678;2023-08-30T07:23:02;99094.13;;;14.84;100.00
37778;BME280;23615;51.506;7.678;2023-08-30T07:25:27;99096.53;;;14.80;100.00
37778;BME280;23615;51.506;7.678;2023-08-30T07:27:52;99098.66;;;14.88;100.00
37778;BME280;23615;51.506;7.678;2023-08-30T07:30:18;99095.19;;;14.83;100.00
37778;BME280;23615;51.506;7.678;2023-08-30T07:32:43;99098.94;;;14.82;100.00
37778;BME280;23615;51.506;7.678;2023-08-30T07:35:08;99100.03;;;14.81;100.00
37778;BME280;23615;51.506;7.678;2023-08-30T07:37:34;99098.66;;;14.88;100.00
37778;BME280;23615;51.506;7.678;2023-08-30T07:39:59;99094.00;;;15.09;100.00
37778;BME280;23615;51.506;7.678;2023-08-30T07:42:25;99093.44;;;15.17;100.00
37778;BME280;23615;51.506;7.678;2023-08-30T07:44:50;99089.91;;;15.22;100.00
37778;BME280;23615;51.506;7.678;2023-08-30T07:47:15;99084.47;;;15.32;100.00
37778;BME280;23615;51.506;7.678;2023-08-30T07:49:41;99081.72;;;15.42;100.00
37778;BME280;23615;51.506;7.678;2023-08-30T07:52:06;99083.06;;;15.45;100.00
37778;BME280;23615;51.506;7.678;2023-08-30T07:54:36;99084.41;;;15.42;100.00
37778;BME280;23615;51.506;7.678;2023-08-30T07:57:02;99085.22;;;15.43;100.00
37778;BME280;23615;51.506;7.678;2023-08-30T07:59:27;99087.84;;;15.53;100.00
37778;BME280;23615;51.506;7.678;2023-08-30T08:01:53;99094.28;;;15.62;100.00
37778;BME280;23615;51.506;7.678;2023-08-30T08:04:18;99094.53;;;15.65;100.00
37778;BME280;23615;51.506;7.678;2023-08-30T08:06:44;99090.94;;;15.80;100.00
37778;BME280;23615;51.506;7.678;2023-08-30T08:09:09;99095.16;;;15.91;100.00
37778;BME280;23615;51.506;7.678;2023-08-30T08:11:34;99095.28;;;16.05;100.00
37778;BME280;23615;51.506;7.678;2023-08-30T08:13:59;99091.16;;;16.18;100.00
37778;BME280;23615;51.506;7.678;2023-08-30T08:16:25;99097.00;;;16.25;100.00
37778;BME280;23615;51.506;7.678;2023-08-30T08:18:50;99089.13;;;16.33;100.00
37778;BME280;23615;51.506;7.678;2023-08-30T08:21:17;99085.06;;;16.36;100.00
37778;BME280;23615;51.506;7.678;2023-08-30T08:23:42;99085.00;;;16.41;100.00
37778;BME280;23615;51.506;7.678;2023-08-30T08:26:08;99086.53;;;16.52;100.00
37778;BME280;23615;51.506;7.678;2023-08-30T08:28:33;99075.22;;;16.50;99.76
37778;BME280;23615;51.506;7.678;2023-08-30T08:30:58;99079.50;;;16.56;97.26
37778;BME280;23615;51.506;7.678;2023-08-30T08:33:24;99077.16;;;16.73;92.84
37778;BME280;23615;51.506;7.678;2023-08-30T08:35:49;99070.63;;;16.79;90.35
37778;BME280;23615;51.506;7.678;2023-08-30T08:38:15;99074.38;;;16.83;88.62
37778;BME280;23615;51.506;7.678;2023-08-30T08:40:40;99074.84;;;16.86;90.97
37778;BME280;23615;51.506;7.678;2023-08-30T08:43:05;99073.47;;;16.88;91.12
37778;BME280;23615;51.506;7.678;2023-08-30T08:45:37;99076.34;;;16.97;90.42
37778;BME280;23615;51.506;7.678;2023-08-30T08:48:06;99076.13;;;16.93;91.08
37778;BME280;23615;51.506;7.678;2023-08-30T08:50:32;99072.94;;;17.10;91.03
37778;BME280;23615;51.506;7.678;2023-08-30T08:52:57;99073.78;;;17.29;88.20
37778;BME280;23615;51.506;7.678;2023-08-30T08:55:23;99079.94;;;17.48;86.09
37778;BME280;23615;51.506;7.678;2023-08-30T08:57:52;99063.63;;;17.40;84.89
37778;BME280;23615;51.506;7.678;2023-08-30T09:00:18;99067.50;;;17.52;81.90
37778;BME280;23615;51.506;7.678;2023-08-30T09:02:43;99061.22;;;17.76;82.81
37778;BME280;23615;51.506;7.678;2023-08-30T09:05:10;99060.00;;;17.68;80.82
37778;BME280;23615;51.506;7.678;2023-08-30T09:07:36;99057.00;;;17.88;79.86
37778;BME280;23615;51.506;7.678;2023-08-30T09:10:02;99069.84;;;17.78;81.20
37778;BME280;23615;51.506;7.678;2023-08-30T09:12:32;99055.47;;;17.82;79.44
37778;BME280;23615;51.506;7.678;2023-08-30T09:14:57;99048.88;;;17.88;80.29
37778;BME280;23615;51.506;7.678;2023-08-30T09:17:22;99059.53;;;18.12;78.06
37778;BME280;23615;51.506;7.678;2023-08-30T09:19:48;99055.97;;;18.17;78.62
37778;BME280;23615;51.506;7.678;2023-08-30T09:22:13;99049.19;;;18.19;77.87
37778;BME280;23615;51.506;7.678;2023-08-30T09:24:39;99053.38;;;18.25;78.01
37778;BME280;23615;51.506;7.678;2023-08-30T09:27:06;99049.88;;;18.25;78.52
37778;BME280;23615;51.506;7.678;2023-08-30T09:29:31;99045.63;;;18.38;76.91
37778;BME280;23615;51.506;7.678;2023-08-30T09:31:57;99038.59;;;18.37;77.14
37778;BME280;23615;51.506;7.678;2023-08-30T09:34:25;99048.59;;;18.36;76.46
37778;BME280;23615;51.506;7.678;2023-08-30T09:36:51;99039.41;;;18.37;77.29
37778;BME280;23615;51.506;7.678;2023-08-30T09:39:16;99042.91;;;18.38;78.09
37778;BME280;23615;51.506;7.678;2023-08-30T09:41:44;99036.41;;;18.39;77.34
37778;BME280;23615;51.506;7.678;2023-08-30T09:44:14;99039.78;;;18.30;77.21
37778;BME280;23615;51.506;7.678;2023-08-30T09:46:48;99035.97;;;18.31;77.85
37778;BME280;23615;51.506;7.678;2023-08-30T09:49:14;99030.41;;;18.28;76.99
37778;BME280;23615;51.506;7.678;2023-08-30T09:51:41;99032.06;;;18.24;76.35
37778;BME280;23615;51.506;7.678;2023-08-30T09:54:13;99030.78;;;18.35;77.11
37778;BME280;23615;51.506;7.678;2023-08-30T09:56:39;99024.00;;;18.38;77.28
37778;BME280;23615;51.506;7.678;2023-08-30T09:59:06;99022.00;;;18.29;78.28
37778;BME280;23615;51.506;7.678;2023-08-30T10:01:32;99027.19;;;18.40;77.36
37778;BME280;23615;51.506;7.678;2023-08-30T10:03:58;99023.41;;;18.54;76.77
37778;BME280;23615;51.506;7.678;2023-08-30T10:06:24;99019.81;;;18.59;77.71
37778;BME280;23615;51.506;7.678;2023-08-30T10:08:51;99016.41;;;18.67;75.97
37778;BME280;23615;51.506;7.678;2023-08-30T10:11:18;99015.13;;;18.78;76.55
37778;BME280;23615;51.506;7.678;2023-08-30T10:13:44;99018.63;;;18.92;76.04
37778;BME280;23615;51.506;7.678;2023-08-30T10:16:12;99009.91;;;18.82;77.25
37778;BME280;23615;51.506;7.678;2023-08-30T10:18:40;99002.88;;;18.94;75.18
37778;BME280;23615;51.506;7.678;2023-08-30T10:21:07;98998.19;;;18.86;76.96
37778;BME280;23615;51.506;7.678;2023-08-30T10:23:37;98997.97;;;18.96;75.34
37778;BME280;23615;51.506;7.678;2023-08-30T10:26:03;98987.38;;;18.86;75.33
37778;BME280;23615;51.506;7.678;2023-08-30T10:28:30;98985.13;;;18.66;75.59
37778;BME280;23615;51.506;7.678;2023-08-30T10:30:56;98986.31;;;18.60;75.74
37778;BME280;23615;51.506;7.678;2023-08-30T10:33:21;98987.81;;;18.66;77.02
37778;BME280;23615;51.506;7.678;2023-08-30T10:35:51;98983.69;;;18.55;77.15
37778;BME280;23615;51.506;7.678;2023-08-30T10:38:29;98983.69;;;18.55;77.47
37778;BME280;23615;51.506;7.678;2023-08-30T10:40:55;98984.50;;;18.69;76.84
37778;BME280;23615;51.506;7.678;2023-08-30T10:43:30;98983.91;;;18.58;77.85
37778;BME280;23615;51.506;7.678;2023-08-30T10:46:02;98978.00;;;18.56;78.17
37778;BME280;23615;51.506;7.678;2023-08-30T10:48:37;98978.19;;;18.60;78.21
37778;BME280;23615;51.506;7.678;2023-08-30T10:51:03;98983.00;;;18.63;78.88
37778;BME280;23615;51.506;7.678;2023-08-30T10:53:32;98978.13;;;18.65;78.78
37778;BME280;23615;51.506;7.678;2023-08-30T10:56:10;98983.91;;;18.58;78.35
37778;BME280;23615;51.506;7.678;2023-08-30T10:58:41;98986.09;;;18.56;77.97
37778;BME280;23615;51.506;7.678;2023-08-30T11:01:09;98989.38;;;18.40;78.87
37778;BME280;23615;51.506;7.678;2023-08-30T11:03:37;98988.28;;;18.54;77.32
37778;BME280;23615;51.506;7.678;2023-08-30T11:06:02;98982.28;;;18.44;78.46
37778;BME280;23615;51.506;7.678;2023-08-30T11:08:28;98982.88;;;18.27;78.83
37778;BME280;23615;51.506;7.678;2023-08-30T11:11:07;98990.66;;;18.15;79.99
37778;BME280;23615;51.506;7.678;2023-08-30T11:13:34;98993.53;;;18.05;82.68
37778;BME280;23615;51.506;7.678;2023-08-30T11:16:03;98996.75;;;17.93;85.56
37778;BME280;23615;51.506;7.678;2023-08-30T11:18:30;99006.69;;;17.79;87.99
37778;BME280;23615;51.506;7.678;2023-08-30T11:21:02;99000.31;;;17.56;90.19
37778;BME280;23615;51.506;7.678;2023-08-30T11:23:27;99004.78;;;17.61;91.67
37778;BME280;23615;51.506;7.678;2023-08-30T11:25:53;99003.16;;;17.65;91.63
37778;BME280;23615;51.506;7.678;2023-08-30T11:28:22;99003.81;;;17.56;93.37
37778;BME280;23615;51.506;7.678;2023-08-30T11:30:48;99004.66;;;17.52;94.81
37778;BME280;23615;51.506;7.678;2023-08-30T11:33:16;99009.94;;;17.43;94.39
37778;BME280;23615;51.506;7.678;2023-08-30T11:35:42;99006.50;;;17.38;94.94
37778;BME280;23615;51.506;7.678;2023-08-30T11:38:07;99009.22;;;17.38;95.55
37778;BME280;23615;51.506;7.678;2023-08-30T11:40:40;99012.03;;;17.46;95.93
37778;BME280;23615;51.506;7.678;2023-08-30T11:43:06;99007.66;;;17.50;96.17
37778;BME280;23615;51.506;7.678;2023-08-30T11:45:32;99008.91;;;17.39;97.13
37778;BME280;23615;51.506;7.678;2023-08-30T11:48:01;98998.47;;;17.33;97.65
37778;BME280;23615;51.506;7.678;2023-08-30T11:50:28;99004.09;;;17.36;98.20
37778;BME280;23615;51.506;7.678;2023-08-30T11:52:54;99008.41;;;17.37;98.59
37778;BME280;23615;51.506;7.678;2023-08-30T11:55:21;99000.47;;;17.27;99.25
37778;BME280;23615;51.506;7.678;2023-08-30T11:57:49;99005.72;;;17.37;99.10
37778;BME280;23615;51.506;7.678;2023-08-30T12:00:18;99002.72;;;17.39;99.38
37778;BME280;23615;51.506;7.678;2023-08-30T12:02:45;99012.09;;;17.41;99.57
37778;BME280;23615;51.506;7.678;2023-08-30T12:05:12;99005.03;;;17.45;98.61
37778;BME280;23615;51.506;7.678;2023-08-30T12:07:38;99003.66;;;17.48;98.13
37778;BME280;23615;51.506;7.678;2023-08-30T12:10:09;98999.72;;;17.40;98.49
37778;BME280;23615;51.506;7.678;2023-08-30T12:12:35;98998.09;;;17.39;98.14
37778;BME280;23615;51.506;7.678;2023-08-30T12:15:07;99000.25;;;17.24;98.62
37778;BME280;23615;51.506;7.678;2023-08-30T12:17:34;98997.41;;;17.15;99.25
37778;BME280;23615;51.506;7.678;2023-08-30T12:20:00;98990.84;;;17.21;99.75
37778;BME280;23615;51.506;7.678;2023-08-30T12:22:38;98996.97;;;17.08;100.00
37778;BME280;23615;51.506;7.678;2023-08-30T12:25:15;98996.44;;;17.06;100.00
37778;BME280;23615;51.506;7.678;2023-08-30T12:27:40;99000.38;;;17.13;100.00
37778;BME280;23615;51.506;7.678;2023-08-30T12:30:06;98990.34;;;17.19;100.00
37778;BME280;23615;51.506;7.678;2023-08-30T12:32:32;98992.25;;;17.18;100.00
37778;BME280;23615;51.506;7.678;2023-08-30T12:34:57;98999.28;;;17.14;100.00
37778;BME280;23615;51.506;7.678;2023-08-30T12:37:24;99001.94;;;17.19;100.00
37778;BME280;23615;51.506;7.678;2023-08-30T12:39:49;99002.78;;;17.15;100.00
37778;BME280;23615;51.506;7.678;2023-08-30T12:42:14;98998.56;;;17.09;100.00
37778;BME280;23615;51.506;7.678;2023-08-30T12:44:40;99004.34;;;17.02;100.00
37778;BME280;23615;51.506;7.678;2023-08-30T12:47:05;99001.41;;;16.99;100.00
37778;BME280;23615;51.506;7.678;2023-08-30T12:49:30;98999.09;;;16.68;100.00
37778;BME280;23615;51.506;7.678;2023-08-30T12:51:55;99001.28;;;16.66;100.00
37778;BME280;23615;51.506;7.678;2023-08-30T12:54:21;99002.41;;;16.60;100.00